createdAt,value
2018-08-20T00:00:52.881Z,24.30
2018-08-20T00:03:21.157Z,24.30
2018-08-20T00:05:52.634Z,24.30
2018-08-20T00:08:21.377Z,24.30
2018-08-20T00:10:52.967Z,24.20
2018-08-20T00:13:21.248Z,24.20
2018-08-20T00:15:49.539Z,24.20
2018-08-20T00:18:22.067Z,24.30
2018-08-20T00:20:50.328Z,24.40
2018-08-20T00:23:18.605Z,24.40
2018-08-20T00:25:46.869Z,24.30
2018-08-20T00:28:15.167Z,24.30
2018-08-20T00:30:43.443Z,24.40
2018-08-20T00:33:11.755Z,24.30
2018-08-20T00:35:40.041Z,24.30
2018-08-20T00:38:08.322Z,24.20
2018-08-20T00:40:36.641Z,24.20
2018-08-20T00:43:04.955Z,24.30
2018-08-20T00:45:33.235Z,24.30
2018-08-20T00:48:01.511Z,24.30
2018-08-20T00:50:29.839Z,24.40
2018-08-20T00:52:58.110Z,24.30
2018-08-20T00:55:26.375Z,24.30
2018-08-20T00:57:54.655Z,24.30
2018-08-20T01:00:22.928Z,24.40
2018-08-20T01:02:51.214Z,24.30
2018-08-20T01:05:19.492Z,24.30
2018-08-20T01:07:47.775Z,24.20
2018-08-20T01:10:16.065Z,24.20
2018-08-20T01:12:44.419Z,24.30
2018-08-20T01:15:12.681Z,24.40
2018-08-20T01:17:40.975Z,24.40
2018-08-20T01:20:09.239Z,24.40
2018-08-20T01:22:37.522Z,24.40
2018-08-20T01:25:05.806Z,24.30
2018-08-20T01:27:34.075Z,24.30
2018-08-20T01:30:02.356Z,24.30
2018-08-20T01:32:30.643Z,24.30
2018-08-20T01:35:14.702Z,24.20
2018-08-20T01:37:42.966Z,24.20
2018-08-20T01:40:11.246Z,24.20
2018-08-20T01:42:39.525Z,24.20
2018-08-20T01:45:07.815Z,24.20
2018-08-20T01:47:36.134Z,24.20
2018-08-20T01:50:04.707Z,24.10
2018-08-20T01:52:33.013Z,24.10
2018-08-20T01:55:01.309Z,24.20
2018-08-20T01:57:29.585Z,24.30
2018-08-20T01:59:57.879Z,24.40
2018-08-20T02:02:26.154Z,24.50
2018-08-20T02:04:54.427Z,24.40
2018-08-20T02:07:22.699Z,24.40
2018-08-20T02:09:51.161Z,24.30
2018-08-20T02:12:19.579Z,24.20
2018-08-20T02:14:47.839Z,24.20
2018-08-20T02:17:16.246Z,24.20
2018-08-20T02:19:44.519Z,24.20
2018-08-20T02:22:12.863Z,24.20
2018-08-20T02:24:41.140Z,24.10
2018-08-20T02:27:09.414Z,24.10
2018-08-20T02:29:37.684Z,24.10
2018-08-20T02:32:06.297Z,24.10
2018-08-20T02:34:34.584Z,24.10
2018-08-20T02:37:02.884Z,24.10
2018-08-20T02:39:31.173Z,24.10
2018-08-20T02:41:59.448Z,24.00
2018-08-20T02:44:27.739Z,24.10
2018-08-20T02:46:56.010Z,24.20
2018-08-20T02:49:24.308Z,24.40
2018-08-20T02:51:52.573Z,24.50
2018-08-20T02:54:20.901Z,24.50
2018-08-20T02:56:49.187Z,24.50
2018-08-20T02:59:17.477Z,24.40
2018-08-20T03:01:45.763Z,24.30
2018-08-20T03:04:14.016Z,24.30
2018-08-20T03:06:42.313Z,24.20
2018-08-20T03:09:15.158Z,24.20
2018-08-20T03:11:43.481Z,24.20
2018-08-20T03:14:12.416Z,24.10
2018-08-20T03:16:40.688Z,24.10
2018-08-20T03:19:09.936Z,24.00
2018-08-20T03:21:38.208Z,24.10
2018-08-20T03:24:06.825Z,24.00
2018-08-20T03:26:35.096Z,24.00
2018-08-20T03:29:03.370Z,24.00
2018-08-20T03:31:31.665Z,24.00
2018-08-20T03:34:00.012Z,24.00
2018-08-20T03:36:28.316Z,24.10
2018-08-20T03:38:56.585Z,24.20
2018-08-20T03:41:24.851Z,24.20
2018-08-20T03:43:53.146Z,24.20
2018-08-20T03:46:21.408Z,24.20
2018-08-20T03:48:49.704Z,24.20
2018-08-20T03:51:17.974Z,24.20
2018-08-20T03:53:46.237Z,24.20
2018-08-20T03:56:14.528Z,24.10
2018-08-20T03:58:42.790Z,24.10
2018-08-20T04:01:11.104Z,24.10
2018-08-20T04:03:39.424Z,24.00
2018-08-20T04:06:07.748Z,24.20
2018-08-20T04:08:35.987Z,24.20
2018-08-20T04:11:04.264Z,24.20
2018-08-20T04:13:32.580Z,24.10
2018-08-20T04:16:00.837Z,24.10
2018-08-20T04:18:29.175Z,24.10
2018-08-20T04:20:57.475Z,24.10
2018-08-20T04:23:25.766Z,24.00
2018-08-20T04:25:54.069Z,24.00
2018-08-20T04:28:22.352Z,24.00
2018-08-20T04:30:50.716Z,24.00
2018-08-20T04:33:19.020Z,24.00
2018-08-20T04:35:47.288Z,24.10
2018-08-20T04:38:15.562Z,24.20
2018-08-20T04:40:43.816Z,24.10
2018-08-20T04:43:12.085Z,24.10
2018-08-20T04:45:40.353Z,24.10
2018-08-20T04:48:08.660Z,24.10
2018-08-20T04:50:37.023Z,24.10
2018-08-20T04:53:05.267Z,24.00
2018-08-20T04:55:33.606Z,24.00
2018-08-20T04:58:01.881Z,24.00
2018-08-20T05:00:30.155Z,24.00
2018-08-20T05:02:58.428Z,24.00
2018-08-20T05:05:26.714Z,23.90
2018-08-20T05:07:55.006Z,24.00
2018-08-20T05:10:23.279Z,23.90
2018-08-20T05:12:51.560Z,23.90
2018-08-20T05:15:19.847Z,24.00
2018-08-20T05:17:48.112Z,24.10
2018-08-20T05:20:16.418Z,24.20
2018-08-20T05:22:44.682Z,24.10
2018-08-20T05:25:13.003Z,24.10
2018-08-20T05:27:41.287Z,24.10
2018-08-20T05:30:09.912Z,24.10
2018-08-20T05:32:38.421Z,24.10
2018-08-20T05:35:07.098Z,24.00
2018-08-20T05:37:35.572Z,24.00
2018-08-20T05:40:03.944Z,24.00
2018-08-20T05:42:32.208Z,24.00
2018-08-20T05:45:00.512Z,24.00
2018-08-20T05:47:28.771Z,23.90
2018-08-20T05:49:57.069Z,23.90
2018-08-20T05:52:25.405Z,23.90
2018-08-20T05:54:53.657Z,23.90
2018-08-20T05:57:21.967Z,24.00
2018-08-20T05:59:50.263Z,24.10
2018-08-20T06:02:18.572Z,24.20
2018-08-20T06:04:46.857Z,24.20
2018-08-20T06:07:15.121Z,24.20
2018-08-20T06:09:43.413Z,24.20
2018-08-20T06:12:11.709Z,24.10
2018-08-20T06:14:40.036Z,24.00
2018-08-20T06:17:08.280Z,24.00
2018-08-20T06:19:36.559Z,24.00
2018-08-20T06:22:04.885Z,24.00
2018-08-20T06:24:33.161Z,23.90
2018-08-20T06:27:01.452Z,23.90
2018-08-20T06:29:29.765Z,23.90
2018-08-20T06:31:58.015Z,23.90
2018-08-20T06:34:26.291Z,23.90
2018-08-20T06:36:54.563Z,23.90
2018-08-20T06:39:22.854Z,23.90
2018-08-20T06:41:51.235Z,23.80
2018-08-20T06:44:19.581Z,23.80
2018-08-20T06:46:47.869Z,23.80
2018-08-20T06:49:16.175Z,23.90
2018-08-20T06:51:44.463Z,24.00
2018-08-20T06:54:12.749Z,24.10
2018-08-20T06:56:41.065Z,24.20
2018-08-20T06:59:09.364Z,24.20
2018-08-20T07:01:37.619Z,24.10
2018-08-20T07:04:05.881Z,24.00
2018-08-20T07:06:34.238Z,24.00
2018-08-20T07:09:02.529Z,23.90
2018-08-20T07:11:30.812Z,23.90
2018-08-20T07:13:59.096Z,23.80
2018-08-20T07:16:28.299Z,23.80
2018-08-20T07:18:56.592Z,23.80
2018-08-20T07:21:24.877Z,23.70
2018-08-20T07:23:53.251Z,23.80
2018-08-20T07:26:21.471Z,23.80
2018-08-20T07:28:49.749Z,23.80
2018-08-20T07:31:18.030Z,23.90
2018-08-20T07:33:46.307Z,23.90
2018-08-20T07:36:14.580Z,23.80
2018-08-20T07:38:42.875Z,23.90
2018-08-20T07:41:11.153Z,23.80
2018-08-20T07:43:39.402Z,23.80
2018-08-20T07:46:07.701Z,23.80
2018-08-20T07:48:35.982Z,23.80
2018-08-20T07:51:04.267Z,23.80
2018-08-20T07:53:32.563Z,23.80
2018-08-20T07:56:00.828Z,24.00
2018-08-20T07:58:29.101Z,24.00
2018-08-20T08:00:57.389Z,24.00
2018-08-20T08:03:30.707Z,24.00
2018-08-20T08:06:00.608Z,23.90
2018-08-20T08:08:28.909Z,23.90
2018-08-20T08:10:57.169Z,23.90
2018-08-20T08:13:25.442Z,23.90
2018-08-20T08:15:53.711Z,23.80
2018-08-20T08:18:22.111Z,23.80
2018-08-20T08:20:50.407Z,23.80
2018-08-20T08:23:18.686Z,23.90
2018-08-20T08:25:46.973Z,23.80
2018-08-20T08:28:15.241Z,23.80
2018-08-20T08:30:43.509Z,23.80
2018-08-20T08:33:11.837Z,23.80
2018-08-20T08:35:40.103Z,23.80
2018-08-20T08:38:08.421Z,24.00
2018-08-20T08:40:36.679Z,24.10
2018-08-20T08:43:05.023Z,24.20
2018-08-20T08:45:33.268Z,24.30
2018-08-20T08:48:01.561Z,24.20
2018-08-20T08:50:29.908Z,24.10
2018-08-20T08:52:58.195Z,24.00
2018-08-20T08:55:26.505Z,24.00
2018-08-20T08:57:54.763Z,24.00
2018-08-20T09:00:23.056Z,23.90
2018-08-20T09:02:51.331Z,23.90
2018-08-20T09:05:19.612Z,23.90
2018-08-20T09:07:47.882Z,23.90
2018-08-20T09:10:16.136Z,23.90
2018-08-20T09:12:44.429Z,24.00
2018-08-20T09:15:15.680Z,24.00
2018-08-20T09:17:44.163Z,24.10
2018-08-20T09:20:14.308Z,24.00
2018-08-20T09:22:42.691Z,24.00
2018-08-20T09:25:12.093Z,24.00
2018-08-20T09:27:41.080Z,24.00
2018-08-20T09:30:13.980Z,24.00
2018-08-20T09:32:42.660Z,24.00
2018-08-20T09:35:10.924Z,24.00
2018-08-20T09:37:39.644Z,23.90
2018-08-20T09:40:08.745Z,23.90
2018-08-20T09:42:37.408Z,23.90
2018-08-20T09:45:06.011Z,23.90
2018-08-20T09:47:34.509Z,23.90
2018-08-20T09:50:02.780Z,23.90
2018-08-20T09:52:31.058Z,23.90
2018-08-20T09:54:59.662Z,24.00
2018-08-20T09:57:27.912Z,24.20
2018-08-20T09:59:56.240Z,24.30
2018-08-20T10:02:24.696Z,24.40
2018-08-20T10:04:52.996Z,24.30
2018-08-20T10:07:21.314Z,24.20
2018-08-20T10:09:49.574Z,24.20
2018-08-20T10:12:18.024Z,24.10
2018-08-20T10:14:46.355Z,24.10
2018-08-20T10:17:14.643Z,24.00
2018-08-20T10:19:42.924Z,24.00
2018-08-20T10:22:11.260Z,24.00
2018-08-20T10:24:39.549Z,24.00
2018-08-20T10:27:07.862Z,24.00
2018-08-20T10:29:36.141Z,23.90
2018-08-20T10:32:04.505Z,24.00
2018-08-20T10:34:32.706Z,24.00
2018-08-20T10:37:00.977Z,24.20
2018-08-20T10:39:29.330Z,24.20
2018-08-20T10:41:57.597Z,24.10
2018-08-20T10:44:25.879Z,24.10
2018-08-20T10:46:54.161Z,24.20
2018-08-20T10:49:22.437Z,24.10
2018-08-20T10:51:50.715Z,24.10
2018-08-20T10:54:19.003Z,24.10
2018-08-20T10:56:47.280Z,24.00
2018-08-20T10:59:15.541Z,24.10
2018-08-20T11:01:43.806Z,24.10
2018-08-20T11:04:12.075Z,24.00
2018-08-20T11:06:40.349Z,24.10
2018-08-20T11:09:08.652Z,24.00
2018-08-20T11:11:36.958Z,24.00
2018-08-20T11:14:05.227Z,24.10
2018-08-20T11:16:33.497Z,24.20
2018-08-20T11:19:01.765Z,24.20
2018-08-20T11:21:30.065Z,24.20
2018-08-20T11:23:58.391Z,24.20
2018-08-20T11:26:26.662Z,24.20
2018-08-20T11:28:54.956Z,24.20
2018-08-20T11:31:23.233Z,24.20
2018-08-20T11:33:51.521Z,24.20
2018-08-20T11:36:19.779Z,24.20
2018-08-20T11:38:48.250Z,24.20
2018-08-20T11:41:16.598Z,24.20
2018-08-20T11:43:44.857Z,24.20
2018-08-20T11:46:13.149Z,24.20
2018-08-20T11:48:41.425Z,24.20
2018-08-20T11:51:09.805Z,24.30
2018-08-20T11:53:38.072Z,24.30
2018-08-20T11:56:06.353Z,24.30
2018-08-20T11:58:34.623Z,24.40
2018-08-20T12:01:03.085Z,24.40
2018-08-20T12:03:31.405Z,24.50
2018-08-20T12:05:59.719Z,24.50
2018-08-20T12:08:28.003Z,24.50
2018-08-20T12:10:56.267Z,24.40
2018-08-20T12:13:24.542Z,24.40
2018-08-20T12:15:52.805Z,24.40
2018-08-20T12:18:21.103Z,24.40
2018-08-20T12:20:49.365Z,24.40
2018-08-20T12:23:17.760Z,24.30
2018-08-20T12:25:46.000Z,24.30
2018-08-20T12:28:14.309Z,24.30
2018-08-20T12:30:42.566Z,24.30
2018-08-20T12:33:11.021Z,24.40
2018-08-20T12:35:39.330Z,24.40
2018-08-20T12:38:07.712Z,24.40
2018-08-20T12:40:35.990Z,24.40
2018-08-20T12:43:04.276Z,24.40
2018-08-20T12:45:32.555Z,24.40
2018-08-20T12:48:00.835Z,24.30
2018-08-20T12:50:29.139Z,24.40
2018-08-20T12:52:57.643Z,24.30
2018-08-20T12:55:25.904Z,24.20
2018-08-20T12:57:54.389Z,24.30
2018-08-20T13:00:22.727Z,24.30
2018-08-20T13:02:50.967Z,24.20
2018-08-20T13:05:19.239Z,24.20
2018-08-20T13:07:47.501Z,24.20
2018-08-20T13:10:15.767Z,24.30
2018-08-20T13:12:44.052Z,24.30
2018-08-20T13:15:12.337Z,24.40
2018-08-20T13:17:40.617Z,24.40
2018-08-20T13:20:08.876Z,24.50
2018-08-20T13:22:37.163Z,24.50
2018-08-20T13:25:06.429Z,24.50
2018-08-20T13:27:34.715Z,24.50
2018-08-20T13:30:02.981Z,24.50
2018-08-20T13:32:31.243Z,24.50
2018-08-20T13:34:59.519Z,24.50
2018-08-20T13:37:27.802Z,24.50
2018-08-20T13:39:56.083Z,24.40
2018-08-20T13:42:24.360Z,24.50
2018-08-20T13:44:52.639Z,24.60
2018-08-20T13:47:20.961Z,24.70
2018-08-20T13:49:49.266Z,24.60
2018-08-20T13:52:17.643Z,24.50
2018-08-20T13:54:45.992Z,24.40
2018-08-20T13:57:14.245Z,24.50
2018-08-20T13:59:42.528Z,24.40
2018-08-20T14:02:10.818Z,24.40
2018-08-20T14:04:39.076Z,24.40
2018-08-20T14:07:07.374Z,24.30
2018-08-20T14:09:35.645Z,24.30
2018-08-20T14:12:03.935Z,24.30
2018-08-20T14:14:32.223Z,24.30
2018-08-20T14:17:00.527Z,24.30
2018-08-20T14:19:28.829Z,24.20
2018-08-20T14:21:57.126Z,24.20
2018-08-20T14:24:25.409Z,24.30
2018-08-20T14:26:53.698Z,24.20
2018-08-20T14:29:21.977Z,24.20
2018-08-20T14:31:50.285Z,24.20
2018-08-20T14:34:18.533Z,24.20
2018-08-20T14:36:46.805Z,24.20
2018-08-20T14:39:15.283Z,24.20
2018-08-20T14:41:43.584Z,24.40
2018-08-20T14:44:11.874Z,24.50
2018-08-20T14:46:40.142Z,24.60
2018-08-20T14:49:08.425Z,24.60
2018-08-20T14:51:36.712Z,24.50
2018-08-20T14:54:04.981Z,24.50
2018-08-20T14:56:33.281Z,24.40
2018-08-20T14:59:01.561Z,24.30
2018-08-20T15:01:29.853Z,24.30
2018-08-20T15:03:58.124Z,24.30
2018-08-20T15:06:26.406Z,24.30
2018-08-20T15:08:54.694Z,24.30
2018-08-20T15:11:22.972Z,24.20
2018-08-20T15:13:51.248Z,24.30
2018-08-20T15:16:20.046Z,24.30
2018-08-20T15:18:48.349Z,24.20
2018-08-20T15:21:16.616Z,24.20
2018-08-20T15:23:44.888Z,24.20
2018-08-20T15:26:13.192Z,24.20
2018-08-20T15:28:41.444Z,24.30
2018-08-20T15:31:09.746Z,24.40
2018-08-20T15:33:38.035Z,24.40
2018-08-20T15:36:06.324Z,24.40
2018-08-20T15:38:34.607Z,24.30
2018-08-20T15:41:02.898Z,24.30
2018-08-20T15:43:31.198Z,24.30
2018-08-20T15:45:59.476Z,24.30
2018-08-20T15:48:27.780Z,24.20
2018-08-20T15:50:56.052Z,24.20
2018-08-20T15:53:24.371Z,24.20
2018-08-20T15:55:52.649Z,24.10
2018-08-20T15:58:20.936Z,24.10
2018-08-20T16:00:49.280Z,24.10
2018-08-20T16:03:17.572Z,24.10
2018-08-20T16:05:45.857Z,24.10
2018-08-20T16:08:14.171Z,24.10
2018-08-20T16:10:42.425Z,24.20
2018-08-20T16:13:10.691Z,24.30
2018-08-20T16:15:38.976Z,24.50
2018-08-20T16:18:07.252Z,24.50
2018-08-20T16:20:35.550Z,24.50
2018-08-20T16:23:03.832Z,24.40
2018-08-20T16:25:32.122Z,24.40
2018-08-20T16:28:00.390Z,24.30
2018-08-20T16:30:28.676Z,24.20
2018-08-20T16:32:56.990Z,24.20
2018-08-20T16:35:25.281Z,24.20
2018-08-20T16:37:53.560Z,24.20
2018-08-20T16:40:21.869Z,24.10
2018-08-20T16:42:50.150Z,24.00
2018-08-20T16:45:18.453Z,24.00
2018-08-20T16:47:46.710Z,24.10
2018-08-20T16:50:15.017Z,24.10
2018-08-20T16:52:43.568Z,24.00
2018-08-20T16:55:11.874Z,24.00
2018-08-20T16:57:40.156Z,23.90
2018-08-20T17:00:10.481Z,24.00
2018-08-20T17:02:40.297Z,24.10
2018-08-20T17:05:09.804Z,24.30
2018-08-20T17:07:38.089Z,24.30
2018-08-20T17:10:07.708Z,24.30
2018-08-20T17:12:35.992Z,24.20
2018-08-20T17:15:07.624Z,24.20
2018-08-20T17:17:36.009Z,24.30
2018-08-20T17:20:04.782Z,24.30
2018-08-20T17:22:33.065Z,24.20
2018-08-20T17:25:01.379Z,24.20
2018-08-20T17:27:29.645Z,24.10
2018-08-20T17:29:57.934Z,24.10
2018-08-20T17:32:26.292Z,24.10
2018-08-20T17:34:54.569Z,24.10
2018-08-20T17:37:22.853Z,24.10
2018-08-20T17:40:03.044Z,24.00
2018-08-20T17:42:32.235Z,24.00
2018-08-20T17:45:01.248Z,24.10
2018-08-20T17:47:29.984Z,24.30
2018-08-20T17:49:59.329Z,24.30
2018-08-20T17:52:33.430Z,24.30
2018-08-20T17:55:04.056Z,24.30
2018-08-20T17:57:32.437Z,24.20
2018-08-20T18:00:15.861Z,24.30
2018-08-20T18:02:44.186Z,24.20
2018-08-20T18:05:12.443Z,24.20
2018-08-20T18:07:40.741Z,24.10
2018-08-20T18:10:09.029Z,24.10
2018-08-20T18:12:37.948Z,24.10
2018-08-20T18:15:06.613Z,24.10
2018-08-20T18:17:34.963Z,24.10
2018-08-20T18:20:04.457Z,24.10
2018-08-20T18:22:32.843Z,24.10
2018-08-20T18:25:01.145Z,24.00
2018-08-20T18:27:33.656Z,24.10
2018-08-20T18:30:01.969Z,24.30
2018-08-20T18:32:30.796Z,24.40
2018-08-20T18:34:59.638Z,24.60
2018-08-20T18:37:27.929Z,24.60
2018-08-20T18:39:59.306Z,24.50
2018-08-20T18:42:33.825Z,24.50
2018-08-20T18:45:02.138Z,24.40
2018-08-20T18:47:30.461Z,24.30
2018-08-20T18:49:59.346Z,24.40
2018-08-20T18:52:30.053Z,24.30
2018-08-20T18:54:59.108Z,24.30
2018-08-20T18:57:30.455Z,24.20
2018-08-20T19:00:00.907Z,24.20
2018-08-20T19:02:40.846Z,24.20
2018-08-20T19:05:10.526Z,24.20
2018-08-20T19:07:39.603Z,24.20
2018-08-20T19:10:23.599Z,24.20
2018-08-20T19:12:51.965Z,24.10
2018-08-20T19:15:41.796Z,24.10
2018-08-20T19:18:12.334Z,24.20
2018-08-20T19:20:42.279Z,24.40
2018-08-20T19:23:10.776Z,24.50
2018-08-20T19:25:39.458Z,24.60
2018-08-20T19:28:23.161Z,24.60
2018-08-20T19:30:52.310Z,24.60
2018-08-20T19:33:27.281Z,24.50
2018-08-20T19:35:55.917Z,24.40
2018-08-20T19:38:24.351Z,24.30
2018-08-20T19:41:03.583Z,24.30
2018-08-20T19:43:42.183Z,24.40
2018-08-20T19:46:10.538Z,24.30
2018-08-20T19:48:38.845Z,24.30
2018-08-20T19:51:09.203Z,24.20
2018-08-20T19:53:37.570Z,24.20
2018-08-20T19:56:10.999Z,24.20
2018-08-20T19:58:42.072Z,24.20
2018-08-20T20:01:15.911Z,24.20
2018-08-20T20:03:46.056Z,24.20
2018-08-20T20:06:15.286Z,24.20
2018-08-20T20:08:43.618Z,24.20
2018-08-20T20:11:20.631Z,24.40
2018-08-20T20:13:55.468Z,24.50
2018-08-20T20:16:24.021Z,24.60
2018-08-20T20:18:52.706Z,24.60
2018-08-20T20:21:21.743Z,24.50
2018-08-20T20:23:50.455Z,24.50
2018-08-20T20:26:19.090Z,24.40
2018-08-20T20:28:48.617Z,24.40
2018-08-20T20:31:17.901Z,24.40
2018-08-20T20:33:46.520Z,24.40
2018-08-20T20:36:18.126Z,24.30
2018-08-20T20:38:47.980Z,24.30
2018-08-20T20:41:17.226Z,24.20
2018-08-20T20:43:45.766Z,24.20
2018-08-20T20:46:14.306Z,24.20
2018-08-20T20:48:42.832Z,24.20
2018-08-20T20:51:11.333Z,24.20
2018-08-20T20:53:39.888Z,24.20
2018-08-20T20:56:08.506Z,24.20
2018-08-20T20:58:37.915Z,24.20
2018-08-20T21:01:07.950Z,24.30
2018-08-20T21:03:36.777Z,24.40
2018-08-20T21:06:06.136Z,24.50
2018-08-20T21:08:44.352Z,24.50
2018-08-20T21:11:14.084Z,24.50
2018-08-20T21:13:43.117Z,24.40
2018-08-20T21:16:13.657Z,24.30
2018-08-20T21:18:51.456Z,24.30
2018-08-20T21:21:19.986Z,24.30
2018-08-20T21:23:48.332Z,24.30
2018-08-20T21:26:16.641Z,24.30
2018-08-20T21:28:48.815Z,24.20
2018-08-20T21:31:19.351Z,24.20
2018-08-20T21:33:48.034Z,24.20
2018-08-20T21:36:16.643Z,24.20
2018-08-20T21:38:45.023Z,24.30
2018-08-20T21:41:13.304Z,24.40
2018-08-20T21:43:46.088Z,24.40
2018-08-20T21:46:14.682Z,24.30
2018-08-20T21:48:43.368Z,24.30
2018-08-20T21:51:28.797Z,24.30
2018-08-20T21:53:57.416Z,24.30
2018-08-20T21:56:34.360Z,24.30
2018-08-20T21:59:02.648Z,24.20
2018-08-20T22:01:30.936Z,24.20
2018-08-20T22:03:59.385Z,24.30
2018-08-20T22:06:27.666Z,24.30
2018-08-20T22:08:55.936Z,24.30
2018-08-20T22:11:24.233Z,24.30
2018-08-20T22:13:52.517Z,24.30
2018-08-20T22:16:22.211Z,24.30
2018-08-20T22:18:53.861Z,24.30
2018-08-20T22:21:22.184Z,24.30
2018-08-20T22:23:50.462Z,24.30
2018-08-20T22:26:20.033Z,24.20
2018-08-20T22:28:50.519Z,24.20
2018-08-20T22:31:19.048Z,24.20
2018-08-20T22:33:52.589Z,24.20
2018-08-20T22:36:20.903Z,24.20
2018-08-20T22:38:51.609Z,24.20
2018-08-20T22:41:20.260Z,24.20
2018-08-20T22:43:48.766Z,24.20
2018-08-20T22:46:17.365Z,24.30
2018-08-20T22:48:46.212Z,24.40
2018-08-20T22:51:16.677Z,24.50
2018-08-20T22:53:46.387Z,24.50
2018-08-20T22:56:17.996Z,24.50
2018-08-20T22:58:46.287Z,24.40
2018-08-20T23:01:14.556Z,24.40
2018-08-20T23:03:42.890Z,24.30
2018-08-20T23:06:11.439Z,24.30
2018-08-20T23:08:39.692Z,24.30
2018-08-20T23:11:07.986Z,24.30
2018-08-20T23:13:36.548Z,24.30
2018-08-20T23:16:04.831Z,24.20
2018-08-20T23:18:33.109Z,24.20
2018-08-20T23:21:01.367Z,24.20
2018-08-20T23:23:37.706Z,24.30
2018-08-20T23:26:09.271Z,24.40
2018-08-20T23:28:39.023Z,24.40
2018-08-20T23:31:07.315Z,24.40
2018-08-20T23:33:38.265Z,24.30
2018-08-20T23:36:06.937Z,24.40
2018-08-20T23:38:35.234Z,24.40
2018-08-20T23:41:03.514Z,24.30
2018-08-20T23:43:31.811Z,24.30
2018-08-20T23:46:00.127Z,24.20
2018-08-20T23:48:28.451Z,24.30
2018-08-20T23:51:01.973Z,24.20
2018-08-20T23:53:30.246Z,24.20
2018-08-20T23:55:58.616Z,24.20
2018-08-20T23:58:26.879Z,24.20
